createdAt,value
2023-04-29T00:00:12.582Z,100212.09
2023-04-29T00:02:39.629Z,100212.03
2023-04-29T00:05:06.998Z,100212.09
2023-04-29T00:07:33.984Z,100212.16
2023-04-29T00:10:03.435Z,100209.66
2023-04-29T00:12:33.489Z,100214.06
2023-04-29T00:15:03.304Z,100208.84
2023-04-29T00:17:30.059Z,100202.75
2023-04-29T00:19:59.277Z,100195.75
2023-04-29T00:22:25.927Z,100189.59
2023-04-29T00:24:57.999Z,100188.63
2023-04-29T00:27:27.564Z,100185.19
2023-04-29T00:29:57.186Z,100187.78
2023-04-29T00:32:26.283Z,100189.34
2023-04-29T00:34:53.107Z,100179.81
2023-04-29T00:37:19.784Z,100191.22
2023-04-29T00:39:46.357Z,100196.50
2023-04-29T00:42:13.079Z,100195.44
2023-04-29T00:44:42.060Z,100198.91
2023-04-29T00:47:11.472Z,100205.66
2023-04-29T00:49:39.038Z,100205.53
2023-04-29T00:52:06.590Z,100208.13
2023-04-29T00:54:33.277Z,100203.00
2023-04-29T00:56:59.948Z,100201.38
2023-04-29T00:59:32.161Z,100204.81
2023-04-29T01:02:04.162Z,100208.28
2023-04-29T01:04:33.914Z,100201.31
2023-04-29T01:07:15.788Z,100203.06
2023-04-29T01:09:45.855Z,100198.72
2023-04-29T01:12:15.028Z,100197.84
2023-04-29T01:14:41.619Z,100201.31
2023-04-29T01:17:13.990Z,100206.41
2023-04-29T01:19:57.764Z,100205.50
2023-04-29T01:22:26.541Z,100205.56
2023-04-29T01:24:53.308Z,100195.19
2023-04-29T01:27:30.301Z,100194.31
2023-04-29T01:30:09.696Z,100195.25
2023-04-29T01:32:58.636Z,100188.19
2023-04-29T01:35:39.739Z,100195.06
2023-04-29T01:38:18.462Z,100190.59
2023-04-29T01:40:59.234Z,100200.88
2023-04-29T01:43:28.399Z,100190.00
2023-04-29T01:45:59.299Z,100194.03
2023-04-29T01:48:26.008Z,100194.94
2023-04-29T01:50:55.367Z,100191.66
2023-04-29T01:53:26.502Z,100180.41
2023-04-29T01:55:53.238Z,100184.00
2023-04-29T01:58:28.200Z,100182.38
2023-04-29T02:01:14.282Z,100190.25
2023-04-29T02:03:41.561Z,100186.03
2023-04-29T02:06:10.288Z,100194.78
2023-04-29T02:08:41.808Z,100186.97
2023-04-29T02:11:08.731Z,100183.59
2023-04-29T02:13:39.721Z,100177.63
2023-04-29T02:16:13.768Z,100177.59
2023-04-29T02:18:56.732Z,100176.63
2023-04-29T02:21:23.543Z,100181.09
2023-04-29T02:23:50.758Z,100176.88
2023-04-29T02:26:17.407Z,100183.81
2023-04-29T02:28:44.461Z,100176.00
2023-04-29T02:31:11.109Z,100181.22
2023-04-29T02:33:37.693Z,100175.06
2023-04-29T02:36:04.581Z,100171.53
2023-04-29T02:38:34.157Z,100168.91
2023-04-29T02:41:00.811Z,100169.69
2023-04-29T02:43:30.934Z,100175.72
2023-04-29T02:46:00.742Z,100166.00
2023-04-29T02:48:27.728Z,100163.34
2023-04-29T02:51:00.207Z,100163.38
2023-04-29T02:53:26.930Z,100158.19
2023-04-29T02:55:53.571Z,100155.59
2023-04-29T02:58:20.210Z,100157.44
2023-04-29T03:00:49.222Z,100153.19
2023-04-29T03:03:16.212Z,100162.78
2023-04-29T03:05:45.597Z,100161.97
2023-04-29T03:08:12.289Z,100160.25
2023-04-29T03:10:41.505Z,100165.38
2023-04-29T03:13:10.972Z,100155.72
2023-04-29T03:15:38.654Z,100160.19
2023-04-29T03:18:06.150Z,100162.81
2023-04-29T03:20:34.164Z,100160.13
2023-04-29T03:23:02.869Z,100163.59
2023-04-29T03:25:30.228Z,100164.53
2023-04-29T03:27:57.250Z,100169.66
2023-04-29T03:30:29.157Z,100168.78
2023-04-29T03:32:57.612Z,100166.34
2023-04-29T03:35:26.064Z,100164.72
2023-04-29T03:38:23.520Z,100165.78
2023-04-29T03:40:50.235Z,100155.41
2023-04-29T03:43:17.675Z,100161.50
2023-04-29T03:45:44.746Z,100168.44
2023-04-29T03:48:15.894Z,100171.03
2023-04-29T03:50:44.857Z,100175.41
2023-04-29T03:53:11.969Z,100176.34
2023-04-29T03:55:38.989Z,100178.88
2023-04-29T03:58:05.686Z,100177.88
2023-04-29T04:00:34.919Z,100184.69
2023-04-29T04:03:07.797Z,100183.81
2023-04-29T04:05:38.145Z,100187.16
2023-04-29T04:08:09.280Z,100191.47
2023-04-29T04:10:41.631Z,100190.69
2023-04-29T04:13:19.764Z,100200.19
2023-04-29T04:15:51.377Z,100198.41
2023-04-29T04:18:18.572Z,100203.72
2023-04-29T04:20:45.360Z,100199.59
2023-04-29T04:23:11.992Z,100202.22
2023-04-29T04:25:38.896Z,100202.94
2023-04-29T04:28:25.457Z,100206.34
2023-04-29T04:31:02.506Z,100200.25
2023-04-29T04:33:29.343Z,100202.81
2023-04-29T04:35:58.600Z,100203.72
2023-04-29T04:38:28.216Z,100203.69
2023-04-29T04:40:55.079Z,100207.66
2023-04-29T04:43:42.881Z,100206.66
2023-04-29T04:46:17.476Z,100198.78
2023-04-29T04:49:00.350Z,100197.16
2023-04-29T04:51:31.584Z,100197.19
2023-04-29T04:53:58.156Z,100196.19
2023-04-29T04:56:30.774Z,100189.22
2023-04-29T04:58:59.558Z,100191.03
2023-04-29T05:01:28.541Z,100193.66
2023-04-29T05:03:56.153Z,100194.56
2023-04-29T05:06:23.231Z,100191.84
2023-04-29T05:08:50.730Z,100189.38
2023-04-29T05:11:18.366Z,100186.97
2023-04-29T05:13:54.157Z,100185.28
2023-04-29T05:16:20.795Z,100195.66
2023-04-29T05:18:54.569Z,100191.25
2023-04-29T05:21:36.464Z,100186.03
2023-04-29T05:24:03.268Z,100188.59
2023-04-29T05:26:38.281Z,100186.75
2023-04-29T05:29:08.857Z,100194.56
2023-04-29T05:31:44.949Z,100194.56
2023-04-29T05:34:14.082Z,100194.50
2023-04-29T05:36:43.182Z,100193.72
2023-04-29T05:39:09.916Z,100195.72
2023-04-29T05:41:36.892Z,100196.44
2023-04-29T05:44:23.821Z,100196.25
2023-04-29T05:46:51.814Z,100200.53
2023-04-29T05:49:19.180Z,100195.47
2023-04-29T05:51:46.116Z,100203.47
2023-04-29T05:54:15.831Z,100196.56
2023-04-29T05:56:42.512Z,100207.00
2023-04-29T05:59:09.546Z,100203.63
2023-04-29T06:01:38.548Z,100200.13
2023-04-29T06:04:08.611Z,100195.06
2023-04-29T06:06:54.658Z,100190.78
2023-04-29T06:09:37.432Z,100198.84
2023-04-29T06:12:06.400Z,100196.38
2023-04-29T06:14:37.662Z,100206.22
2023-04-29T06:17:04.299Z,100214.28
2023-04-29T06:19:33.603Z,100219.63
2023-04-29T06:22:00.426Z,100214.59
2023-04-29T06:24:27.123Z,100210.28
2023-04-29T06:26:57.128Z,100207.03
2023-04-29T06:29:27.967Z,100208.06
2023-04-29T06:31:57.456Z,100204.69
2023-04-29T06:34:27.132Z,100202.13
2023-04-29T06:37:17.650Z,100208.31
2023-04-29T06:40:05.272Z,100210.22
2023-04-29T06:42:52.321Z,100210.31
2023-04-29T06:46:00.732Z,100215.56
2023-04-29T06:48:38.798Z,100214.84
2023-04-29T06:51:08.368Z,100212.28
2023-04-29T06:53:36.817Z,100217.56
2023-04-29T06:56:08.315Z,100221.09
2023-04-29T06:58:37.650Z,100215.88
2023-04-29T07:01:04.996Z,100213.34
2023-04-29T07:03:35.341Z,100217.69
2023-04-29T07:06:04.952Z,100211.59
2023-04-29T07:08:37.833Z,100216.84
2023-04-29T07:11:08.163Z,100213.38
2023-04-29T07:13:34.970Z,100209.03
2023-04-29T07:16:01.907Z,100212.56
2023-04-29T07:18:34.007Z,100213.53
2023-04-29T07:21:01.291Z,100212.63
2023-04-29T07:23:27.917Z,100213.47
2023-04-29T07:25:54.583Z,100215.28
2023-04-29T07:28:23.640Z,100212.78
2023-04-29T07:30:59.484Z,100216.34
2023-04-29T07:33:29.929Z,100214.72
2023-04-29T07:35:59.034Z,100219.25
2023-04-29T07:38:27.984Z,100215.91
2023-04-29T07:40:54.730Z,100216.84
2023-04-29T07:43:24.319Z,100208.28
2023-04-29T07:45:51.323Z,100214.50
2023-04-29T07:48:23.456Z,100216.31
2023-04-29T07:50:50.912Z,100218.19
2023-04-29T07:53:18.260Z,100219.13
2023-04-29T07:55:47.715Z,100218.28
2023-04-29T07:58:15.404Z,100222.66
2023-04-29T08:00:45.397Z,100219.25
2023-04-29T08:03:12.365Z,100218.50
2023-04-29T08:05:39.363Z,100222.88
2023-04-29T08:08:09.543Z,100216.84
2023-04-29T08:10:41.102Z,100217.72
2023-04-29T08:13:11.863Z,100223.94
2023-04-29T08:15:42.045Z,100228.41
2023-04-29T08:18:13.498Z,100221.56
2023-04-29T08:20:40.879Z,100224.22
2023-04-29T08:23:08.028Z,100226.97
2023-04-29T08:25:34.687Z,100227.00
2023-04-29T08:28:01.734Z,100224.41
2023-04-29T08:30:31.464Z,100220.03
2023-04-29T08:32:58.153Z,100229.59
2023-04-29T08:35:24.896Z,100223.50
2023-04-29T08:37:55.227Z,100225.31
2023-04-29T08:40:27.672Z,100227.94
2023-04-29T08:42:57.885Z,100224.44
2023-04-29T08:45:27.417Z,100225.31
2023-04-29T08:47:56.558Z,100219.22
2023-04-29T08:50:28.045Z,100220.97
2023-04-29T08:52:55.094Z,100227.09
2023-04-29T08:55:21.969Z,100227.91
2023-04-29T08:57:50.960Z,100232.25
2023-04-29T09:00:20.109Z,100227.94
2023-04-29T09:02:51.124Z,100230.59
2023-04-29T09:05:20.169Z,100234.97
2023-04-29T09:07:46.927Z,100231.50
2023-04-29T09:10:13.651Z,100239.38
2023-04-29T09:12:40.291Z,100235.88
2023-04-29T09:15:07.303Z,100241.13
2023-04-29T09:17:42.963Z,100244.63
2023-04-29T09:20:22.121Z,100241.09
2023-04-29T09:22:49.400Z,100246.34
2023-04-29T09:25:18.669Z,100238.50
2023-04-29T09:27:45.627Z,100242.03
2023-04-29T09:30:17.221Z,100236.78
2023-04-29T09:32:45.080Z,100236.75
2023-04-29T09:35:28.406Z,100235.91
2023-04-29T09:38:08.035Z,100235.00
2023-04-29T09:40:43.438Z,100234.97
2023-04-29T09:43:18.465Z,100229.72
2023-04-29T09:45:48.432Z,100235.81
2023-04-29T09:48:15.706Z,100231.38
2023-04-29T09:50:45.182Z,100231.41
2023-04-29T09:53:28.064Z,100227.94
2023-04-29T09:55:54.740Z,100226.16
2023-04-29T09:58:28.216Z,100224.44
2023-04-29T10:00:54.814Z,100225.31
2023-04-29T10:03:25.278Z,100220.91
2023-04-29T10:06:16.254Z,100221.75
2023-04-29T10:11:25.924Z,100220.81
2023-04-29T10:13:55.816Z,100219.75
2023-04-29T10:16:31.944Z,100213.63
2023-04-29T10:19:00.204Z,100219.75
2023-04-29T10:21:32.753Z,100224.09
2023-04-29T10:24:03.148Z,100215.09
2023-04-29T10:26:30.084Z,100206.94
2023-04-29T10:29:15.204Z,100213.72
2023-04-29T10:31:47.954Z,100208.25
2023-04-29T10:34:24.170Z,100200.41
2023-04-29T10:36:53.592Z,100203.78
2023-04-29T10:39:26.647Z,100197.44
2023-04-29T10:42:04.230Z,100196.25
2023-04-29T10:44:41.111Z,100183.75
2023-04-29T10:47:24.232Z,100175.09
2023-04-29T10:50:05.011Z,100166.28
2023-04-29T10:52:31.822Z,100164.13
2023-04-29T10:55:07.573Z,100160.31
2023-04-29T10:57:37.368Z,100164.97
2023-04-29T11:00:06.819Z,100160.53
2023-04-29T11:02:36.239Z,100146.97
2023-04-29T11:05:14.605Z,100145.44
2023-04-29T11:07:41.769Z,100146.38
2023-04-29T11:10:08.499Z,100137.22
2023-04-29T11:12:35.828Z,100142.91
2023-04-29T11:15:19.813Z,100140.06
2023-04-29T11:17:46.428Z,100128.56
2023-04-29T11:20:18.951Z,100136.34
2023-04-29T11:22:51.179Z,100124.66
2023-04-29T11:25:23.959Z,100130.44
2023-04-29T11:27:50.950Z,100124.25
2023-04-29T11:30:18.106Z,100123.47
2023-04-29T11:32:52.345Z,100117.50
2023-04-29T11:35:24.637Z,100124.06
2023-04-29T11:37:51.481Z,100124.50
2023-04-29T11:40:18.352Z,100119.50
2023-04-29T11:42:48.157Z,100122.78
2023-04-29T11:45:21.961Z,100126.25
2023-04-29T11:47:56.286Z,100127.38
2023-04-29T11:50:27.657Z,100122.09
2023-04-29T11:52:54.210Z,100122.34
2023-04-29T11:55:20.947Z,100116.75
2023-04-29T11:57:49.074Z,100120.19
2023-04-29T12:00:16.946Z,100117.56
2023-04-29T12:02:47.764Z,100117.75
2023-04-29T12:05:19.339Z,100109.19
2023-04-29T12:07:51.121Z,100108.63
2023-04-29T12:10:25.074Z,100103.25
2023-04-29T12:12:51.789Z,100102.16
2023-04-29T12:15:18.401Z,100101.34
2023-04-29T12:17:47.531Z,100106.97
2023-04-29T12:20:14.169Z,100106.94
2023-04-29T12:22:43.596Z,100111.44
2023-04-29T12:25:10.554Z,100105.47
2023-04-29T12:27:40.067Z,100099.75
2023-04-29T12:30:08.278Z,100099.25
2023-04-29T12:32:34.938Z,100104.38
2023-04-29T12:35:01.682Z,100093.00
2023-04-29T12:37:30.919Z,100100.88
2023-04-29T12:39:57.631Z,100091.84
2023-04-29T12:42:24.292Z,100080.06
2023-04-29T12:44:56.038Z,100076.88
2023-04-29T12:47:23.247Z,100080.31
2023-04-29T12:49:50.144Z,100080.44
2023-04-29T12:52:21.857Z,100065.56
2023-04-29T12:54:48.497Z,100075.75
2023-04-29T12:57:15.087Z,100064.84
2023-04-29T12:59:44.023Z,100059.91
2023-04-29T13:02:10.677Z,100053.59
2023-04-29T13:04:38.121Z,100059.00
2023-04-29T13:07:06.011Z,100056.00
2023-04-29T13:09:32.733Z,100053.56
2023-04-29T13:12:02.936Z,100051.25
2023-04-29T13:14:32.079Z,100052.91
2023-04-29T13:16:58.698Z,100053.91
2023-04-29T13:19:43.366Z,100050.28
2023-04-29T13:22:14.381Z,100049.50
2023-04-29T13:24:43.169Z,100053.59
2023-04-29T13:27:10.806Z,100048.78
2023-04-29T13:29:37.493Z,100046.09
2023-04-29T13:32:06.740Z,100045.41
2023-04-29T13:34:33.482Z,100039.38
2023-04-29T13:37:00.133Z,100039.66
2023-04-29T13:39:27.102Z,100028.81
2023-04-29T13:41:58.741Z,100029.53
2023-04-29T13:44:42.460Z,100030.53
2023-04-29T13:47:26.234Z,100011.91
2023-04-29T13:50:17.314Z,100020.25
2023-04-29T13:55:39.450Z,100019.53
2023-04-29T14:00:45.345Z,100031.81
2023-04-29T14:03:18.666Z,100021.41
2023-04-29T14:05:48.188Z,100029.41
2023-04-29T14:08:17.207Z,100032.47
2023-04-29T14:10:43.845Z,100026.38
2023-04-29T14:13:10.703Z,100020.50
2023-04-29T14:15:40.354Z,100020.41
2023-04-29T14:18:10.753Z,100019.88
2023-04-29T14:20:37.873Z,100014.25
2023-04-29T14:23:04.393Z,100014.41
2023-04-29T14:25:33.053Z,100011.59
2023-04-29T14:28:00.421Z,100008.69
2023-04-29T14:30:29.324Z,100009.59
2023-04-29T14:32:56.472Z,100000.56
2023-04-29T14:35:23.188Z,99997.53
2023-04-29T14:37:53.000Z,99996.41
2023-04-29T14:40:22.151Z,100002.38
2023-04-29T14:42:48.920Z,99995.94
2023-04-29T14:45:18.025Z,100004.69
2023-04-29T14:47:45.104Z,99999.97
2023-04-29T14:50:11.925Z,100004.41
2023-04-29T14:52:41.033Z,100009.34
2023-04-29T14:55:09.030Z,100005.22
2023-04-29T14:57:38.716Z,100006.81
2023-04-29T15:00:08.345Z,100009.03
2023-04-29T15:02:37.279Z,100013.97
2023-04-29T15:05:04.997Z,100018.34
2023-04-29T15:07:33.841Z,100020.22
2023-04-29T15:10:00.804Z,100018.91
2023-04-29T15:12:27.403Z,100016.66
2023-04-29T15:14:54.248Z,100010.66
2023-04-29T15:17:23.713Z,100011.06
2023-04-29T15:19:53.187Z,100008.38
2023-04-29T15:22:20.115Z,100010.09
2023-04-29T15:27:23.354Z,100009.50
2023-04-29T15:29:49.985Z,100010.56
2023-04-29T15:32:16.631Z,100012.44
2023-04-29T15:34:43.296Z,100011.97
2023-04-29T15:37:10.011Z,100009.56
2023-04-29T15:39:36.689Z,99996.78
2023-04-29T15:42:03.943Z,99999.91
2023-04-29T15:44:31.213Z,100000.06
2023-04-29T15:46:59.984Z,99996.81
2023-04-29T15:49:29.268Z,99986.13
2023-04-29T15:51:56.004Z,99981.47
2023-04-29T15:54:23.467Z,99992.47
2023-04-29T15:56:50.857Z,99982.19
2023-04-29T15:59:17.501Z,99986.19
2023-04-29T16:01:46.833Z,99992.09
2023-04-29T16:04:13.620Z,99988.22
2023-04-29T16:06:40.974Z,99991.25
2023-04-29T16:09:12.093Z,99988.25
2023-04-29T16:11:38.804Z,99995.25
2023-04-29T16:14:05.409Z,99999.28
2023-04-29T16:16:34.447Z,99993.47
2023-04-29T16:19:01.486Z,99991.75
2023-04-29T16:21:28.048Z,99993.13
2023-04-29T16:23:54.938Z,99999.22
2023-04-29T16:26:24.908Z,99998.16
2023-04-29T16:28:51.843Z,99995.16
2023-04-29T16:31:20.050Z,99992.56
2023-04-29T16:33:46.759Z,99993.47
2023-04-29T16:36:13.853Z,99991.06
2023-04-29T16:38:40.459Z,99986.81
2023-04-29T16:41:09.658Z,99993.91
2023-04-29T16:43:38.640Z,99991.50
2023-04-29T16:46:05.329Z,99987.19
2023-04-29T16:48:32.231Z,99989.81
2023-04-29T16:50:59.034Z,99991.50
2023-04-29T16:53:25.609Z,99995.91
2023-04-29T16:55:54.674Z,99992.41
2023-04-29T16:58:22.073Z,99980.94
2023-04-29T17:00:48.830Z,99994.91
2023-04-29T17:03:15.632Z,99992.13
2023-04-29T17:05:44.429Z,99994.63
2023-04-29T17:08:14.770Z,100001.72
2023-04-29T17:10:41.436Z,99997.53
2023-04-29T17:13:08.064Z,100012.72
2023-04-29T17:15:34.616Z,100012.09
2023-04-29T17:18:01.377Z,100016.66
2023-04-29T17:20:28.548Z,100021.34
2023-04-29T17:22:55.147Z,100029.53
2023-04-29T17:25:22.564Z,100020.06
2023-04-29T17:27:49.204Z,100023.75
2023-04-29T17:30:15.948Z,100027.31
2023-04-29T17:32:44.424Z,100027.50
2023-04-29T17:35:11.635Z,100028.63
2023-04-29T17:37:38.236Z,100034.00
2023-04-29T17:40:05.103Z,100031.47
2023-04-29T17:42:34.708Z,100035.09
2023-04-29T17:45:01.316Z,100033.41
2023-04-29T17:47:32.630Z,100040.44
2023-04-29T17:50:02.805Z,100038.75
2023-04-29T17:52:32.159Z,100044.00
2023-04-29T17:54:58.769Z,100038.75
2023-04-29T17:57:25.594Z,100048.44
2023-04-29T17:59:53.473Z,100038.88
2023-04-29T18:02:25.016Z,100047.66
2023-04-29T18:04:51.652Z,100051.19
2023-04-29T18:07:20.343Z,100052.91
2023-04-29T18:09:49.689Z,100042.41
2023-04-29T18:12:16.318Z,100051.19
2023-04-29T18:14:42.878Z,100054.69
2023-04-29T18:17:09.419Z,100059.09
2023-04-29T18:19:36.112Z,100052.09
2023-04-29T18:22:02.799Z,100062.59
2023-04-29T18:24:34.298Z,100073.13
2023-04-29T18:27:00.968Z,100072.25
2023-04-29T18:29:27.649Z,100079.22
2023-04-29T18:31:55.223Z,100080.91
2023-04-29T18:34:26.622Z,100086.16
2023-04-29T18:36:55.770Z,100092.22
2023-04-29T18:39:22.429Z,100091.31
2023-04-29T18:41:49.017Z,100093.94
2023-04-29T18:44:15.621Z,100092.22
2023-04-29T18:46:47.017Z,100094.84
2023-04-29T18:49:17.101Z,100097.47
2023-04-29T18:51:47.122Z,100099.16
2023-04-29T18:54:19.010Z,100100.06
2023-04-29T18:56:48.363Z,100103.53
2023-04-29T18:59:21.118Z,100109.63
2023-04-29T19:01:50.578Z,100108.72
2023-04-29T19:04:17.242Z,100112.19
2023-04-29T19:06:49.470Z,100109.56
2023-04-29T19:09:16.185Z,100109.56
2023-04-29T19:11:43.142Z,100110.41
2023-04-29T19:14:12.150Z,100107.69
2023-04-29T19:16:38.738Z,100107.66
2023-04-29T19:19:07.761Z,100110.25
2023-04-29T19:21:34.464Z,100105.06
2023-04-29T19:24:01.207Z,100118.19
2023-04-29T19:26:32.843Z,100112.91
2023-04-29T19:29:03.906Z,100126.84
2023-04-29T19:31:30.642Z,100120.75
2023-04-29T19:34:00.157Z,100119.03
2023-04-29T19:36:29.304Z,100118.19
2023-04-29T19:38:55.889Z,100117.38
2023-04-29T19:41:25.047Z,100122.63
2023-04-29T19:43:51.651Z,100117.41
2023-04-29T19:46:21.023Z,100120.00
2023-04-29T19:48:50.009Z,100121.75
2023-04-29T19:51:16.927Z,100127.00
2023-04-29T19:53:43.709Z,100133.97
2023-04-29T19:56:10.623Z,100129.59
2023-04-29T19:58:37.174Z,100136.63
2023-04-29T20:01:04.048Z,100134.00
2023-04-29T20:03:35.776Z,100128.75
2023-04-29T20:06:02.560Z,100126.94
2023-04-29T20:08:29.781Z,100133.03
2023-04-29T20:10:56.440Z,100134.78
2023-04-29T20:13:23.042Z,100132.09
2023-04-29T20:15:50.047Z,100126.84
2023-04-29T20:18:19.890Z,100127.63
2023-04-29T20:20:47.249Z,100123.19
2023-04-29T20:23:16.742Z,100123.16
2023-04-29T20:25:43.391Z,100125.78
2023-04-29T20:28:10.192Z,100125.72
2023-04-29T20:30:39.099Z,100125.69
2023-04-29T20:33:10.771Z,100123.94
2023-04-29T20:35:39.771Z,100117.81
2023-04-29T20:38:07.406Z,100121.31
2023-04-29T20:40:34.657Z,100128.28
2023-04-29T20:43:04.735Z,100130.00
2023-04-29T20:45:31.587Z,100139.34
2023-04-29T20:48:00.761Z,100133.19
2023-04-29T20:50:28.028Z,100147.19
2023-04-29T20:52:54.636Z,100142.84
2023-04-29T20:55:21.309Z,100145.50
2023-04-29T20:57:47.992Z,100149.81
2023-04-29T21:00:15.107Z,100150.69
2023-04-29T21:02:41.726Z,100148.94
2023-04-29T21:05:10.127Z,100150.69
2023-04-29T21:07:37.336Z,100148.09
2023-04-29T21:10:09.769Z,100147.09
2023-04-29T21:12:36.560Z,100152.22
2023-04-29T21:15:03.093Z,100157.44
2023-04-29T21:17:29.737Z,100155.75
2023-04-29T21:19:56.755Z,100160.97
2023-04-29T21:22:25.788Z,100155.75
2023-04-29T21:24:52.662Z,100153.16
2023-04-29T21:27:21.954Z,100168.00
2023-04-29T21:29:49.079Z,100152.34
2023-04-29T21:32:21.554Z,100155.91
2023-04-29T21:34:51.113Z,100157.72
2023-04-29T21:37:18.066Z,100161.25
2023-04-29T21:39:47.064Z,100160.38
2023-04-29T21:42:21.297Z,100168.19
2023-04-29T21:44:47.925Z,100173.38
2023-04-29T21:47:14.605Z,100161.19
2023-04-29T21:49:41.998Z,100169.97
2023-04-29T21:52:08.893Z,100172.66
2023-04-29T21:54:35.501Z,100174.47
2023-04-29T21:57:03.020Z,100170.91
2023-04-29T21:59:34.513Z,100165.69
2023-04-29T22:02:01.498Z,100169.09
2023-04-29T22:04:33.028Z,100162.13
2023-04-29T22:07:01.772Z,100160.38
2023-04-29T22:09:33.833Z,100163.00
2023-04-29T22:12:03.059Z,100152.53
2023-04-29T22:14:30.112Z,100156.84
2023-04-29T22:17:01.730Z,100162.00
2023-04-29T22:19:32.881Z,100162.88
2023-04-29T22:22:01.706Z,100160.28
2023-04-29T22:24:28.280Z,100162.06
2023-04-29T22:26:54.910Z,100164.59
2023-04-29T22:29:24.389Z,100158.50
2023-04-29T22:31:53.486Z,100156.81
2023-04-29T22:34:20.142Z,100152.44
2023-04-29T22:36:49.159Z,100156.75
2023-04-29T22:39:20.616Z,100162.81
2023-04-29T22:41:47.244Z,100165.38
2023-04-29T22:44:13.980Z,100154.88
2023-04-29T22:46:40.617Z,100163.56
2023-04-29T22:49:09.659Z,100160.94
2023-04-29T22:51:36.427Z,100165.28
2023-04-29T22:54:03.177Z,100161.75
2023-04-29T22:56:29.802Z,100166.13
2023-04-29T22:58:56.372Z,100173.09
2023-04-29T23:01:23.437Z,100166.97
2023-04-29T23:03:52.545Z,100174.81
2023-04-29T23:06:19.545Z,100163.47
2023-04-29T23:08:48.601Z,100172.19
2023-04-29T23:11:15.303Z,100174.81
2023-04-29T23:13:41.952Z,100173.94
2023-04-29T23:16:10.759Z,100172.94
2023-04-29T23:18:37.654Z,100173.63
2023-04-29T23:21:07.250Z,100161.44
2023-04-29T23:23:33.933Z,100164.94
2023-04-29T23:26:00.537Z,100159.72
2023-04-29T23:28:32.186Z,100164.09
2023-04-29T23:30:58.760Z,100158.84
2023-04-29T23:33:25.371Z,100152.78
2023-04-29T23:35:54.531Z,100148.44
2023-04-29T23:38:24.085Z,100151.88
2023-04-29T23:40:50.723Z,100151.00
2023-04-29T23:43:17.336Z,100148.44
2023-04-29T23:45:44.741Z,100153.66
2023-04-29T23:48:12.257Z,100141.47
2023-04-29T23:50:39.006Z,100152.81
2023-04-29T23:53:05.541Z,100146.69
2023-04-29T23:55:32.558Z,100149.31
2023-04-29T23:57:59.140Z,100151.88
